Latest Weather Observations for Melbourne

IDV60801

Issued at 12:05 pm EST Friday 22 August 2014 (issued every 30 minutes, with the page automatically refreshed every 10 minutes)

About weather observations | Map of weather stations | Latest weather observations for VIC | Other Formats
Station Details ID: 086071 Name: MELBOURNE REGIONAL OFFICE Lat: -37.81 Lon: 144.97 Height: 31.15 m
Data from the previous 72 hours. | See also: Recent months at Melbourne

* Apparent temperature (App Temp) for Melbourne is calculated using temperature observations collected at Melbourne and wind observations collected at Melbourne (Olympic Park), as wind observations are not currently provided for Melbourne.

Date/Time
EST
Temp
°C
App
Temp
°C
Dew
Point
Rel
Hum
%
Delta-T
°C
Wind Press
QNH
hPa
Press
MSL
hPa
Rain
since 9 am
mm
Dir
 
Spd
km/h
Gust
km/h
Spd
kts
Gust
kts
22/12:00pm 18.2 13.8 5.0 41 6.3 NNW 17 - 9 - 1029.8 1029.9 0.0
22/11:30am 17.4 13.9 5.3 45 5.8 N 13 - 7 - 1030.3 - 0.0
22/11:00am 17.0 14.7 5.5 46 5.5 NNE 7 - 4 - 1030.7 - 0.0
22/10:30am 15.2 12.9 5.7 53 4.5 NNE 7 - 4 - 1030.9 - 0.0
22/10:00am 13.0 10.4 6.2 63 3.2 NE 9 - 5 - 1031.1 - 0.0
22/09:30am 11.6 8.9 5.7 67 2.7 NE 9 - 5 - 1031.2 - 0.0
22/09:00am 10.4 7.6 5.3 70 2.3 NE 9 - 5 - 1031.3 1031.4 0.0
22/08:30am 9.3 6.5 5.0 74 1.9 NE 9 - 5 - 1031.3 - 0.0
22/08:00am 8.8 6.0 5.2 78 1.6 NE 9 - 5 - 1031.1 - 0.0
22/07:30am 8.1 5.3 5.2 82 1.3 NE 9 - 5 - 1030.9 - 0.0
22/07:00am 7.5 5.0 5.0 84 1.1 NNE 7 - 4 - 1030.5 - 0.0
22/06:30am 7.4 4.6 5.1 85 1.0 N 9 - 5 - 1030.3 - 0.0
22/06:00am 7.6 5.4 5.1 84 1.1 NNE 6 - 3 - 1030.1 1030.2 0.0
22/05:30am 8.0 5.2 5.0 81 1.3 NNE 9 - 5 - 1029.9 - 0.0
22/05:00am 8.1 5.3 5.2 82 1.3 NE 9 - 5 - 1029.7 - 0.0
22/04:30am 8.3 5.6 5.6 83 1.2 NE 9 - 5 - 1029.5 - 0.0
22/04:00am 8.7 6.0 5.8 82 1.3 NNE 9 - 5 - 1029.4 - 0.0
22/03:30am 8.8 6.5 5.9 82 1.3 NNE 7 - 4 - 1029.4 - 0.0
22/03:00am 8.3 6.2 5.9 85 1.1 NE 6 - 3 - 1029.3 1029.4 0.0
22/02:30am 9.0 6.4 5.9 81 1.4 NNE 9 - 5 - 1029.6 - 0.0
22/02:00am 9.1 6.5 6.0 81 1.4 NNE 9 - 5 - 1029.6 - 0.0
22/01:30am 9.4 7.3 6.6 83 1.3 NNE 7 - 4 - 1029.6 - 0.0
22/01:00am 9.1 7.0 6.5 84 1.2 NNE 7 - 4 - 1029.5 - 0.0
22/12:30am 10.1 8.0 6.7 79 1.6 NNE 7 - 4 - 1029.5 - 0.0
22/12:00am 10.2 8.1 6.8 79 1.6 N 7 - 4 - 1029.6 1029.7 0.0
 
Date/Time
EST
Temp
°C
App
Temp
°C
Dew
Point
Rel
Hum
%
Delta-T
°C
Wind Press
QNH
hPa
Press
MSL
hPa
Rain
since 9 am
mm
Dir
 
Spd
km/h
Gust
km/h
Spd
kts
Gust
kts
21/11:30pm 10.1 8.6 6.9 80 1.5 N 4 - 2 - 1029.5 - 0.0
21/11:00pm 11.1 9.2 6.9 75 2.0 NE 6 - 3 - 1029.5 - 0.0
21/10:30pm 11.8 11.0 6.5 70 2.5 CALM 0 - 0 - 1029.4 - 0.0
21/10:00pm 12.4 11.6 6.5 67 2.8 CALM 0 - 0 - 1029.4 - 0.0
21/09:30pm 12.5 11.8 6.8 68 2.7 CALM 0 - 0 - 1029.4 - 0.0
21/09:00pm 13.5 11.4 6.8 64 3.2 NNE 7 - 4 - 1029.2 1029.3 0.0
21/08:30pm 14.2 12.3 6.5 60 3.7 NNE 6 - 3 - 1028.9 - 0.0
21/08:00pm 14.4 13.2 6.5 59 3.8 N 2 - 1 - 1028.7 - 0.0
21/07:30pm 14.3 12.4 6.8 60 3.6 N 6 - 3 - 1028.5 - 0.0
21/07:00pm 15.1 13.1 6.9 58 4.0 N 7 - 4 - 1028.2 - 0.0
21/06:30pm 15.6 13.7 6.5 54 4.4 N 6 - 3 - 1027.9 - 0.0
21/06:00pm 16.1 13.4 5.6 49 5.0 NNE 9 - 5 - 1027.7 1027.8 0.0
21/05:30pm 16.5 13.7 5.1 47 5.4 N 9 - 5 - 1027.4 - 0.0
21/05:00pm 16.6 12.5 4.4 44 5.7 N 15 - 8 - 1027.0 - 0.0
21/04:30pm 17.3 14.6 5.4 45 5.7 N 9 - 5 - 1026.8 - 0.0
21/04:00pm 17.0 14.2 5.3 46 5.6 NNW 9 - 5 - 1026.8 - 0.0
21/03:30pm 16.8 14.6 5.3 46 5.5 SSW 6 - 3 - 1026.8 - 0.0
21/03:00pm 17.2 15.0 5.3 45 5.7 SSW 6 - 3 - 1026.8 1026.9 0.0
21/02:30pm 17.4 15.0 5.3 45 5.8 S 7 - 4 - 1026.8 - 0.0
21/02:00pm 17.1 14.2 4.9 44 5.8 SSW 9 - 5 - 1026.9 - 0.0
21/01:30pm 16.4 14.3 6.6 52 4.8 SW 7 - 4 - 1026.9 - 0.0
21/01:00pm 15.5 13.6 6.9 56 4.2 ENE 6 - 3 - 1027.4 - 0.0
21/12:30pm 15.8 12.9 6.5 54 4.5 N 11 - 6 - 1027.9 - 0.0
21/12:00pm 15.4 13.5 6.5 55 4.3 ENE 6 - 3 - 1028.4 1028.4 0.0
21/11:30am 14.1 12.6 6.6 60 3.6 ESE 4 - 2 - 1028.9 - 0.0
21/11:00am 13.0 11.4 6.5 64 3.1 E 4 - 2 - 1029.1 - 0.0
21/10:30am 12.2 10.1 6.7 69 2.6 N 7 - 4 - 1029.4 - 0.0
21/10:00am 11.4 10.3 6.7 73 2.2 NNE 2 - 1 - 1029.4 - 0.0
21/09:30am 10.3 8.4 6.7 78 1.7 NNE 6 - 3 - 1029.5 - 0.0
21/09:00am 9.8 7.8 7.0 83 1.3 NE 7 - 4 - 1029.5 1029.6 0.0
21/08:30am 9.5 6.6 6.7 83 1.3 NNE 11 - 6 - 1029.3 - 0.0
21/08:00am 8.9 6.4 6.7 86 1.0 NE 9 - 5 - 1029.0 - 0.0
21/07:30am 8.8 6.9 6.6 86 1.0 N 6 - 3 - 1028.8 - 0.0
21/07:00am 8.9 8.1 6.5 85 1.1 CALM 0 - 0 - 1028.0 - 0.0
21/06:30am 8.9 8.1 6.7 86 1.0 CALM 0 - 0 - 1028.2 - 0.0
21/06:00am 8.9 8.1 6.5 85 1.1 CALM 0 - 0 - 1028.0 1028.1 0.0
21/05:30am 9.0 8.2 6.4 84 1.2 CALM 0 - 0 - 1027.8 - 0.0
21/05:00am 9.2 8.4 6.4 83 1.3 CALM 0 - 0 - 1027.7 - 0.0
21/04:30am 8.9 7.7 6.3 84 1.2 S 2 - 1 - 1027.6 - 0.0
21/04:00am 8.7 7.8 6.1 84 1.2 CALM 0 - 0 - 1027.7 - 0.0
21/03:30am 8.9 8.0 6.0 82 1.3 CALM 0 - 0 - 1027.5 - 0.0
21/03:00am 9.6 8.6 5.6 76 1.8 CALM 0 - 0 - 1027.5 1027.6 0.0
21/02:30am 10.3 8.9 5.5 72 2.2 S 2 - 1 - 1027.5 - 0.0
21/02:00am 10.4 9.4 5.6 72 2.2 CALM 0 - 0 - 1027.6 - 0.0
21/01:30am 10.5 9.0 5.2 70 2.4 S 2 - 1 - 1027.5 - 0.0
21/01:00am 10.6 8.4 5.3 70 2.4 S 6 - 3 - 1027.6 - 0.0
21/12:30am 10.6 7.7 4.8 67 2.6 SSE 9 - 5 - 1027.7 - 0.0
21/12:00am 10.7 8.3 5.2 69 2.5 S 7 - 4 - 1027.6 1027.7 0.0
 
Date/Time
EST
Temp
°C
App
Temp
°C
Dew
Point
Rel
Hum
%
Delta-T
°C
Wind Press
QNH
hPa
Press
MSL
hPa
Rain
since 9 am
mm
Dir
 
Spd
km/h
Gust
km/h
Spd
kts
Gust
kts
20/11:30pm 10.8 8.0 5.3 69 2.5 SSE 9 - 5 - 1027.8 - 0.0
20/11:00pm 10.9 8.5 5.2 68 2.6 S 7 - 4 - 1027.9 - 0.0
20/10:30pm 11.0 8.2 5.3 68 2.6 SSE 9 - 5 - 1028.0 - 0.0
20/10:00pm 11.0 8.2 5.0 66 2.7 SSE 9 - 5 - 1028.2 - 0.0
20/09:30pm 11.2 8.7 5.0 65 2.8 S 7 - 4 - 1028.2 - 0.0
20/09:00pm 11.4 8.6 5.0 65 2.9 S 9 - 5 - 1028.1 1028.2 0.0
20/08:30pm 11.6 8.7 6.3 70 2.5 S 11 - 6 - 1027.9 - 0.0
20/08:00pm 11.8 8.8 6.2 68 2.6 S 11 - 6 - 1027.9 - 0.0
20/07:30pm 12.0 9.3 5.7 65 2.9 S 9 - 5 - 1027.9 - 0.0
20/07:00pm 11.9 9.5 5.4 64 3.0 SSW 7 - 4 - 1027.8 - 0.0
20/06:30pm 12.1 9.8 4.8 61 3.3 S 6 - 3 - 1027.7 - 0.0
20/06:00pm 12.3 9.2 3.5 55 3.9 S 9 - 5 - 1027.3 1027.4 0.0
20/05:30pm 12.3 9.4 4.6 59 3.5 S 9 - 5 - 1027.0 - 0.0
20/05:00pm 12.5 9.9 4.0 56 3.8 S 7 - 4 - 1026.8 - 0.0
20/04:30pm 12.5 9.3 5.1 60 3.4 S 11 - 6 - 1026.6 - 0.0
20/04:00pm 12.7 9.4 4.6 58 3.7 SSW 11 - 6 - 1026.5 - 0.0
20/03:30pm 12.9 10.2 5.6 61 3.4 SSW 9 - 5 - 1026.3 - 0.0
20/03:00pm 12.8 9.4 5.7 62 3.3 SSW 13 - 7 - 1026.3 1026.4 0.0
20/02:30pm 12.7 9.0 4.3 56 3.8 SSW 13 - 7 - 1026.2 - 0.0
20/02:00pm 13.3 9.6 4.5 55 4.0 SSW 13 - 7 - 1026.1 - 0.0
20/01:30pm 12.9 9.4 3.7 53 4.1 SSW 11 - 6 - 1026.1 - 0.0
20/01:00pm 13.0 9.3 2.4 48 4.6 S 11 - 6 - 1026.4 - 0.0
20/12:30pm 13.2 10.1 3.6 52 4.3 SSW 9 - 5 - 1026.6 - 0.0
20/12:00pm 12.9 10.3 4.0 54 4.0 S 7 - 4 - 1026.9 1027.0 0.0
20/11:30am 12.2 10.0 5.2 62 3.2 SSW 6 - 3 - 1027.2 - 0.0
20/11:00am 12.4 9.6 5.2 61 3.3 SSW 9 - 5 - 1027.2 - 0.0
20/10:30am 11.9 9.0 4.6 61 3.3 SSE 9 - 5 - 1027.3 - 0.0
20/10:00am 11.9 8.7 4.9 62 3.2 ESE 11 - 6 - 1027.3 - 0.0
20/09:30am 11.9 8.9 4.1 59 3.5 SE 9 - 5 - 1027.1 - 0.0
20/09:00am 11.0 8.0 2.3 55 3.7 SE 7 - 4 - 1027.0 1027.1 0.2
20/08:30am 11.3 9.6 2.1 53 3.9 CALM 0 - 0 - 1026.8 - 0.2
20/08:00am 11.0 9.3 1.7 52 3.9 CALM 0 - 0 - 1026.5 - 0.2
20/07:30am 10.6 9.0 2.6 57 3.4 CALM 0 - 0 - 1026.2 - 0.2
20/07:00am 10.6 8.9 2.1 55 3.6 CALM 0 - 0 - 1025.9 - 0.2
20/06:30am 10.3 8.6 2.0 56 3.5 CALM 0 - 0 - 1025.7 - 0.2
20/06:00am 10.4 8.7 1.8 55 3.6 CALM 0 - 0 - 1025.6 1025.7 0.2
20/05:30am 10.3 7.9 2.0 56 3.5 E 4 - 2 - 1025.3 - 0.2
20/05:00am 10.3 7.9 2.3 57 3.4 ESE 4 - 2 - 1025.3 - 0.2
20/04:30am 10.4 7.6 2.1 56 3.5 SSE 6 - 3 - 1025.3 - 0.2
20/04:00am 10.5 7.7 1.9 55 3.6 SSE 6 - 3 - 1025.4 - 0.0
20/03:30am 10.5 7.5 2.2 56 3.5 SSE 7 - 4 - 1025.3 - 0.0
20/03:00am 10.5 7.7 2.2 56 3.5 SSE 6 - 3 - 1025.3 1025.4 0.0
20/02:30am 10.6 7.7 2.4 57 3.5 SE 7 - 4 - 1025.3 - 0.0
20/02:00am 10.7 7.8 2.5 57 3.5 SSE 7 - 4 - 1025.5 - 0.0
20/01:30am 10.7 8.0 2.8 58 3.4 SSE 6 - 3 - 1025.7 - 0.0
20/01:00am 10.6 7.9 2.9 59 3.3 SE 6 - 3 - 1025.7 - 0.0
20/12:30am 10.7 8.0 2.8 58 3.4 SSE 6 - 3 - 1025.7 - 0.0
20/12:00am 10.7 7.8 2.5 57 3.5 SE 7 - 4 - 1025.6 1025.7 0.0
 
Date/Time
EST
Temp
°C
App
Temp
°C
Dew
Point
Rel
Hum
%
Delta-T
°C
Wind Press
QNH
hPa
Press
MSL
hPa
Rain
since 9 am
mm
Dir
 
Spd
km/h
Gust
km/h
Spd
kts
Gust
kts
19/11:30pm 10.7 7.9 3.1 59 3.3 SE 7 - 4 - 1025.7 - 0.0
19/11:00pm 10.9 8.0 2.8 57 3.5 SE 7 - 4 - 1025.8 - 0.0
19/10:30pm 11.1 8.4 2.7 56 3.6 SSE 6 - 3 - 1025.8 - 0.0
19/10:00pm 11.1 7.8 2.7 56 3.6 SSE 9 - 5 - 1025.9 - 0.0
19/09:30pm 11.2 8.0 3.2 58 3.5 SSE 9 - 5 - 1025.8 - 0.0
19/09:00pm 11.4 7.9 3.4 58 3.5 S 11 - 6 - 1025.6 1025.7 0.0
19/08:30pm 11.5 8.4 3.8 59 3.4 SSE 9 - 5 - 1025.5 - 0.0
19/08:00pm 11.6 8.6 4.0 59 3.4 SSE 9 - 5 - 1025.4 - 0.0
19/07:30pm 11.8 8.8 3.9 58 3.5 SSE 9 - 5 - 1025.3 - 0.0
19/07:00pm 11.9 9.2 3.8 57 3.6 SSE 7 - 4 - 1025.1 - 0.0
19/06:30pm 12.1 9.1 4.1 58 3.6 SSE 9 - 5 - 1024.8 - 0.0
19/06:00pm 12.2 8.9 4.5 59 3.5 S 11 - 6 - 1024.6 1024.7 0.0
19/05:30pm 12.8 9.6 5.2 60 3.5 S 11 - 6 - 1024.3 - 0.0
19/05:00pm 12.7 9.7 4.0 55 3.9 S 9 - 5 - 1024.1 - 0.0
19/04:30pm 12.9 10.0 4.8 58 3.7 SSE 9 - 5 - 1024.0 - 0.0
19/04:00pm 12.9 9.8 5.6 61 3.4 SSE 11 - 6 - 1023.8 - 0.0
19/03:30pm 13.0 10.4 6.0 62 3.3 S 9 - 5 - 1023.7 - 0.0
19/03:00pm 13.2 10.1 5.5 59 3.6 SSW 11 - 6 - 1023.6 1023.7 0.0
19/02:30pm 13.3 10.1 5.1 57 3.8 S 11 - 6 - 1023.6 - 0.0
19/02:00pm 13.2 10.0 5.2 58 3.7 SSW 11 - 6 - 1023.6 - 0.0
19/01:30pm 13.1 9.7 5.9 61 3.4 SSW 13 - 7 - 1023.7 - 0.0
19/01:00pm 13.3 10.4 6.4 63 3.3 SSW 11 - 6 - 1023.9 - 0.0
19/12:30pm 13.2 10.6 6.0 61 3.4 SSE 9 - 5 - 1024.0 - 0.0

Other Formats:

Comma delimited format used in spreadsheet applications
http://www.bom.gov.au/fwo/IDV60801/IDV60801.94868.axf

JavaScript Object Notation format (JSON) in row-major order
http://www.bom.gov.au/fwo/IDV60801/IDV60801.94868.json